Time;durP1;ratioP1;P1;durP2;ratioP2;P2;SDS_P1;SDS_P2;PMS_P1;PMS_P2;Temp;Humidity;BMP_temperature;BMP_pressure;BME280_temperature;BME280_humidity;BME280_pressure;Samples;Min_cycle;Max_cycle;Signal;HPM_P1;HPM_P2
2023/12/18 00:02:19;;;;;;;21.27;12.03;;;7.10;99.90;;;;;;5002653;28;20027;-82
2023/12/18 00:04:46;;;;;;;23.47;12.83;;;7.10;99.90;;;;;;5004697;28;20076;-82
2023/12/18 00:07:11;;;;;;;20.67;11.17;;;7.10;99.90;;;;;;4986792;28;20095;-82
2023/12/18 00:09:39;;;;;;;21.47;10.93;;;7.10;99.90;;;;;;4987062;28;20030;-82
2023/12/18 00:12:05;;;;;;;23.47;12.47;;;7.10;99.90;;;;;;4986714;28;20033;-81
2023/12/18 00:14:31;;;;;;;26.07;12.67;;;7.10;99.90;;;;;;4986305;28;20037;-82
2023/12/18 00:16:56;;;;;;;25.60;12.67;;;7.10;99.90;;;;;;4986502;28;20030;-82
2023/12/18 00:19:22;;;;;;;23.70;11.40;;;7.10;99.90;;;;;;4986747;28;20109;-82
2023/12/18 00:21:47;;;;;;;27.07;12.47;;;7.10;99.90;;;;;;4987218;28;20018;-82
2023/12/18 00:24:13;;;;;;;25.67;12.20;;;7.10;99.90;;;;;;4986084;28;20034;-82
2023/12/18 00:26:39;;;;;;;30.40;12.67;;;7.10;99.90;;;;;;5004343;28;20026;-83
2023/12/18 00:29:04;;;;;;;25.10;12.07;;;7.20;99.90;;;;;;4985844;28;20085;-82
2023/12/18 00:31:30;;;;;;;22.10;13.20;;;7.10;99.90;;;;;;4986251;28;20146;-83
2023/12/18 00:33:56;;;;;;;23.80;11.63;;;7.10;99.90;;;;;;5002472;28;20044;-82
2023/12/18 00:36:21;;;;;;;27.10;12.40;;;7.10;99.90;;;;;;5001815;28;20129;-82
2023/12/18 00:38:47;;;;;;;23.20;12.47;;;7.10;99.90;;;;;;4986670;28;20057;-82
2023/12/18 00:41:12;;;;;;;29.33;13.10;;;7.20;99.90;;;;;;4985932;28;20021;-82
2023/12/18 00:43:38;;;;;;;23.00;12.33;;;7.10;99.90;;;;;;4986250;28;20041;-82
2023/12/18 00:46:05;;;;;;;24.53;12.93;;;7.10;99.90;;;;;;4985839;28;20030;-82
2023/12/18 00:48:31;;;;;;;28.53;13.63;;;7.10;99.90;;;;;;4986138;28;20026;-83
2023/12/18 00:50:56;;;;;;;23.27;12.23;;;7.10;99.90;;;;;;4985727;28;20022;-83
2023/12/18 00:53:22;;;;;;;20.43;12.10;;;7.10;99.90;;;;;;4986137;28;20021;-83
2023/12/18 00:55:48;;;;;;;21.27;13.07;;;7.10;99.90;;;;;;4986092;28;20034;-83
2023/12/18 00:58:13;;;;;;;25.27;11.50;;;7.10;99.90;;;;;;4985278;28;20022;-82
2023/12/18 01:00:39;;;;;;;24.00;13.00;;;7.10;99.90;;;;;;4985905;28;20166;-84
2023/12/18 01:03:05;;;;;;;24.47;12.57;;;7.20;99.90;;;;;;5003150;28;20037;-83
2023/12/18 01:05:31;;;;;;;23.47;12.70;;;7.10;99.90;;;;;;4985986;28;20026;-83
2023/12/18 01:07:57;;;;;;;22.30;11.93;;;7.20;99.90;;;;;;5003583;28;20066;-83
2023/12/18 01:10:23;;;;;;;22.27;11.03;;;7.20;99.90;;;;;;5002173;28;20554;-83
2023/12/18 01:12:48;;;;;;;20.20;11.73;;;7.10;99.90;;;;;;5003259;28;20026;-82
2023/12/18 01:15:14;;;;;;;24.27;13.27;;;7.20;99.90;;;;;;4985420;28;20026;-81
2023/12/18 01:17:40;;;;;;;28.20;12.63;;;7.20;99.90;;;;;;4986398;28;20090;-82
2023/12/18 01:20:06;;;;;;;20.37;12.83;;;7.20;99.90;;;;;;4985404;28;20023;-82
2023/12/18 01:22:32;;;;;;;21.60;12.03;;;7.20;99.90;;;;;;4985769;28;20022;-81
2023/12/18 01:24:57;;;;;;;26.17;12.53;;;7.20;99.90;;;;;;4982286;28;20055;-82
2023/12/18 01:27:23;;;;;;;24.80;12.80;;;7.20;99.90;;;;;;4998601;28;20023;-81
2023/12/18 01:29:49;;;;;;;21.73;13.43;;;7.20;99.90;;;;;;4982149;28;20023;-81
2023/12/18 01:32:14;;;;;;;28.00;12.57;;;7.20;99.90;;;;;;4982261;28;20033;-81
2023/12/18 01:34:40;;;;;;;23.83;11.97;;;7.20;99.90;;;;;;4982153;28;20046;-81
2023/12/18 01:37:06;;;;;;;19.23;11.70;;;7.20;99.90;;;;;;4981964;28;20038;-82
2023/12/18 01:39:32;;;;;;;28.97;12.30;;;7.20;99.90;;;;;;4998676;28;20027;-82
2023/12/18 01:42:00;;;;;;;25.13;12.50;;;7.20;99.90;;;;;;4982174;28;20023;-82
2023/12/18 01:44:26;;;;;;;27.73;12.83;;;7.20;99.90;;;;;;4983753;28;20023;-82
2023/12/18 01:46:53;;;;;;;32.80;15.27;;;7.20;99.90;;;;;;4981704;28;20509;-83
2023/12/18 01:49:19;;;;;;;20.17;13.03;;;7.20;99.90;;;;;;4986845;28;20026;-82
2023/12/18 01:51:46;;;;;;;25.43;13.20;;;7.20;99.90;;;;;;4986428;28;20027;-81
2023/12/18 01:54:12;;;;;;;26.07;14.10;;;7.20;99.90;;;;;;4985845;28;20051;-81
2023/12/18 01:56:39;;;;;;;18.83;11.03;;;7.20;99.90;;;;;;4987298;28;20054;-81
2023/12/18 01:59:06;;;;;;;23.23;12.40;;;7.20;99.90;;;;;;4985647;28;20038;-81
2023/12/18 02:01:32;;;;;;;26.50;12.87;;;7.20;99.90;;;;;;4987262;28;20055;-82
2023/12/18 02:03:58;;;;;;;22.53;12.67;;;7.20;99.90;;;;;;4987123;28;20050;-81
2023/12/18 02:06:25;;;;;;;21.50;10.67;;;7.30;99.90;;;;;;4985707;28;20023;-82
2023/12/18 02:08:51;;;;;;;23.60;13.47;;;7.30;99.90;;;;;;4986207;28;20372;-81
2023/12/18 02:11:17;;;;;;;25.93;13.20;;;7.30;99.90;;;;;;4985204;28;20026;-83
2023/12/18 02:13:43;;;;;;;21.77;11.67;;;7.30;99.90;;;;;;4986203;28;20077;-84
2023/12/18 02:16:09;;;;;;;20.63;11.20;;;7.30;99.90;;;;;;4985692;28;20085;-82
2023/12/18 02:18:45;;;;;;;30.23;12.83;;;7.30;99.90;;;;;;4985821;28;20035;-82
2023/12/18 02:21:10;;;;;;;24.57;12.80;;;7.30;99.90;;;;;;4985439;28;20015;-82
2023/12/18 02:23:36;;;;;;;24.00;13.67;;;7.20;99.90;;;;;;5001739;28;20015;-83
2023/12/18 02:26:02;;;;;;;23.17;12.60;;;7.30;99.90;;;;;;5001380;28;20075;-82
2023/12/18 02:28:29;;;;;;;27.10;13.53;;;7.30;99.90;;;;;;5001426;28;20027;-82
2023/12/18 02:30:55;;;;;;;29.27;14.17;;;7.30;99.90;;;;;;4985689;28;20033;-84
2023/12/18 02:33:20;;;;;;;22.00;13.00;;;7.40;99.90;;;;;;4985127;28;20050;-82
2023/12/18 02:35:46;;;;;;;22.40;12.80;;;7.30;99.90;;;;;;4986127;28;20035;-83
2023/12/18 02:38:11;;;;;;;24.30;13.30;;;7.30;99.90;;;;;;4986335;28;20518;-82
2023/12/18 02:40:39;;;;;;;25.07;13.60;;;7.40;99.90;;;;;;4984769;28;20409;-83
2023/12/18 02:43:05;;;;;;;26.93;15.07;;;7.30;99.90;;;;;;4986914;28;20051;-83
2023/12/18 02:45:31;;;;;;;22.47;12.40;;;7.30;99.90;;;;;;5000884;28;20023;-83
2023/12/18 02:47:56;;;;;;;24.47;13.80;;;7.30;99.90;;;;;;4986957;28;20057;-83
2023/12/18 02:50:22;;;;;;;24.90;14.53;;;7.30;99.90;;;;;;5001314;28;20387;-83
2023/12/18 02:52:48;;;;;;;21.10;13.23;;;7.30;99.90;;;;;;4984974;28;20027;-83
2023/12/18 02:55:13;;;;;;;22.33;13.27;;;7.40;99.90;;;;;;4984405;28;20031;-83
2023/12/18 02:57:39;;;;;;;21.77;12.23;;;7.30;99.90;;;;;;4984793;28;20034;-83
2023/12/18 03:00:06;;;;;;;25.10;12.87;;;7.30;99.90;;;;;;4984141;28;20019;-83
2023/12/18 03:02:31;;;;;;;23.13;12.40;;;7.30;99.90;;;;;;4984758;28;20046;-84
2023/12/18 03:04:57;;;;;;;23.73;13.33;;;7.40;99.90;;;;;;5001277;28;20027;-84
2023/12/18 03:07:22;;;;;;;25.00;13.57;;;7.40;99.90;;;;;;4984426;28;20027;-84
2023/12/18 03:09:48;;;;;;;19.97;11.80;;;7.40;99.90;;;;;;4984490;28;20038;-83
2023/12/18 03:12:14;;;;;;;26.87;13.30;;;7.40;99.90;;;;;;4984639;28;20050;-82
2023/12/18 03:14:39;;;;;;;23.43;11.83;;;7.40;99.90;;;;;;5000576;28;20022;-82
2023/12/18 03:17:05;;;;;;;19.93;11.83;;;7.50;99.90;;;;;;4985815;28;20117;-82
2023/12/18 03:19:31;;;;;;;25.43;13.33;;;7.50;99.90;;;;;;4984358;28;20062;-81
2023/12/18 03:21:56;;;;;;;21.67;12.17;;;7.50;99.90;;;;;;4986483;28;20081;-82
2023/12/18 03:24:22;;;;;;;23.73;10.97;;;7.50;99.90;;;;;;4984797;28;20069;-83
2023/12/18 03:26:48;;;;;;;21.43;12.10;;;7.50;99.90;;;;;;5004111;28;20030;-83
2023/12/18 03:29:13;;;;;;;22.80;12.87;;;7.50;99.90;;;;;;4987513;28;20036;-83
2023/12/18 03:31:39;;;;;;;20.27;11.40;;;7.60;99.90;;;;;;5003298;28;20034;-83
2023/12/18 03:34:04;;;;;;;26.37;13.07;;;7.50;99.90;;;;;;4987043;28;20027;-82
2023/12/18 03:36:30;;;;;;;21.57;12.80;;;7.60;99.90;;;;;;4987167;28;20034;-83
2023/12/18 03:38:56;;;;;;;22.77;13.37;;;7.60;99.90;;;;;;4987513;28;20037;-82
2023/12/18 03:41:21;;;;;;;23.37;13.20;;;7.60;99.90;;;;;;5004664;28;20034;-82
2023/12/18 03:43:47;;;;;;;25.67;13.70;;;7.60;99.90;;;;;;5005277;28;20037;-82
2023/12/18 03:46:13;;;;;;;22.00;12.37;;;7.60;99.90;;;;;;4987242;28;20040;-82
2023/12/18 03:48:38;;;;;;;21.40;12.03;;;7.60;99.90;;;;;;4987411;28;20081;-81
2023/12/18 03:51:05;;;;;;;21.93;12.77;;;7.60;99.90;;;;;;4987116;28;20478;-82
2023/12/18 03:53:31;;;;;;;26.07;13.97;;;7.60;99.90;;;;;;5004045;28;20022;-81
2023/12/18 03:55:56;;;;;;;22.13;11.87;;;7.60;99.90;;;;;;5003587;28;20046;-82
2023/12/18 03:58:22;;;;;;;20.13;12.73;;;7.60;99.90;;;;;;4986810;28;20033;-81
2023/12/18 04:00:48;;;;;;;23.57;13.50;;;7.60;99.90;;;;;;4987395;28;20057;-81
2023/12/18 04:03:13;;;;;;;24.40;12.73;;;7.60;99.90;;;;;;4986801;28;20040;-82
2023/12/18 04:05:39;;;;;;;28.33;13.67;;;7.60;99.90;;;;;;4987261;28;20042;-82
2023/12/18 04:08:05;;;;;;;27.47;15.20;;;7.60;99.90;;;;;;4986580;28;20088;-81
2023/12/18 04:10:31;;;;;;;27.57;13.87;;;7.60;99.90;;;;;;4987140;28;20030;-82
2023/12/18 04:12:56;;;;;;;25.33;13.17;;;7.60;99.90;;;;;;5004799;28;20026;-82
2023/12/18 04:15:22;;;;;;;23.23;13.57;;;7.60;99.90;;;;;;4986271;28;20351;-81
2023/12/18 04:17:48;;;;;;;20.63;13.13;;;7.60;99.90;;;;;;4987164;28;20111;-82
2023/12/18 04:20:13;;;;;;;22.27;12.43;;;7.70;99.90;;;;;;5003913;28;20106;-82
2023/12/18 04:22:39;;;;;;;22.87;13.53;;;7.70;99.90;;;;;;4986446;28;20030;-82
2023/12/18 04:25:05;;;;;;;23.53;12.70;;;7.60;99.90;;;;;;4982957;28;20042;-82
2023/12/18 04:27:31;;;;;;;21.07;11.73;;;7.60;99.90;;;;;;4983323;28;20018;-82
2023/12/18 04:29:56;;;;;;;22.70;13.13;;;7.70;99.90;;;;;;4983563;28;20073;-82
2023/12/18 04:32:22;;;;;;;25.77;14.37;;;7.60;99.90;;;;;;4983138;28;20069;-83
2023/12/18 04:34:48;;;;;;;21.63;14.33;;;7.70;99.90;;;;;;4983132;28;20023;-83
2023/12/18 04:37:13;;;;;;;24.07;12.53;;;7.70;99.90;;;;;;4998857;28;20087;-82
2023/12/18 04:39:39;;;;;;;22.67;12.53;;;7.60;99.90;;;;;;4983022;28;20026;-82
2023/12/18 04:42:05;;;;;;;29.47;14.80;;;7.60;99.90;;;;;;4999142;28;20050;-82
2023/12/18 04:44:30;;;;;;;25.80;14.90;;;7.60;99.90;;;;;;4984510;28;20019;-81
2023/12/18 04:46:56;;;;;;;25.17;14.27;;;7.60;99.90;;;;;;4983133;28;20062;-82
2023/12/18 04:49:22;;;;;;;25.33;13.23;;;7.60;99.90;;;;;;4982529;28;20042;-81
2023/12/18 04:51:48;;;;;;;21.10;12.37;;;7.60;99.90;;;;;;4982643;28;20023;-83
2023/12/18 04:54:13;;;;;;;21.90;12.40;;;7.60;99.90;;;;;;4982648;28;20023;-83
2023/12/18 04:56:39;;;;;;;27.60;14.50;;;7.60;99.90;;;;;;4983011;28;20039;-82
2023/12/18 04:59:05;;;;;;;27.67;14.73;;;7.60;99.90;;;;;;4982303;28;20078;-82
2023/12/18 05:01:31;;;;;;;25.40;15.47;;;7.60;99.90;;;;;;4982706;28;20103;-82
2023/12/18 05:03:56;;;;;;;23.63;14.40;;;7.60;99.90;;;;;;4982711;28;20053;-81
2023/12/18 05:06:28;;;;;;;23.20;13.30;;;7.50;99.90;;;;;;4982450;28;20026;-82
2023/12/18 05:08:55;;;;;;;26.13;14.07;;;7.60;99.90;;;;;;4984000;28;20026;-82
2023/12/18 05:11:23;;;;;;;28.57;14.80;;;7.60;99.90;;;;;;4982386;28;20031;-82
2023/12/18 05:13:49;;;;;;;24.73;13.73;;;7.60;99.90;;;;;;4982887;28;20106;-83
2023/12/18 05:16:16;;;;;;;29.63;15.50;;;7.60;99.90;;;;;;4982624;28;20078;-83
2023/12/18 05:18:42;;;;;;;25.97;14.63;;;7.60;99.90;;;;;;4982259;28;20031;-83
2023/12/18 05:21:10;;;;;;;28.83;16.47;;;7.60;99.90;;;;;;4983610;28;20027;-83
2023/12/18 05:23:35;;;;;;;28.37;15.37;;;7.60;99.90;;;;;;4983474;28;20049;-83
2023/12/18 05:26:01;;;;;;;26.30;14.83;;;7.60;99.90;;;;;;4982294;28;20051;-83
2023/12/18 05:28:27;;;;;;;26.40;14.70;;;7.60;99.90;;;;;;4982211;28;20061;-83
2023/12/18 05:30:53;;;;;;;26.87;15.83;;;7.60;99.90;;;;;;4982782;28;20029;-82
2023/12/18 05:33:19;;;;;;;24.27;14.77;;;7.60;99.90;;;;;;4982046;28;20394;-82
2023/12/18 05:35:45;;;;;;;24.00;14.57;;;7.60;99.90;;;;;;4981775;28;20049;-83
2023/12/18 05:38:11;;;;;;;27.03;15.50;;;7.60;99.90;;;;;;4982347;28;20023;-83
2023/12/18 05:40:37;;;;;;;33.20;16.50;;;7.60;99.90;;;;;;4982302;28;20118;-84
2023/12/18 05:43:04;;;;;;;26.30;15.97;;;7.60;99.90;;;;;;4982695;28;20061;-83
2023/12/18 05:45:31;;;;;;;26.97;16.03;;;7.60;99.90;;;;;;4981983;28;20456;-83
2023/12/18 05:47:57;;;;;;;32.67;17.27;;;7.60;99.90;;;;;;4998425;28;20022;-83
2023/12/18 05:50:22;;;;;;;28.70;16.07;;;7.60;99.90;;;;;;4981787;28;20517;-82
2023/12/18 05:52:48;;;;;;;28.60;16.50;;;7.60;99.90;;;;;;4983604;28;20042;-84
2023/12/18 05:55:14;;;;;;;27.97;15.33;;;7.60;99.90;;;;;;4982166;28;20030;-83
2023/12/18 05:57:41;;;;;;;28.80;16.10;;;7.60;99.90;;;;;;4982357;28;20026;-83
2023/12/18 06:00:07;;;;;;;32.83;16.70;;;7.60;99.90;;;;;;4983306;28;20363;-82
2023/12/18 06:02:33;;;;;;;31.33;18.33;;;7.50;99.90;;;;;;4981546;28;20031;-82
2023/12/18 06:04:59;;;;;;;31.43;16.27;;;7.50;99.90;;;;;;4982394;28;20655;-83
2023/12/18 06:07:25;;;;;;;27.73;16.37;;;7.50;99.90;;;;;;4998175;28;20027;-82
2023/12/18 06:09:51;;;;;;;32.50;17.97;;;7.50;99.90;;;;;;4983746;28;20038;-82
2023/12/18 06:12:17;;;;;;;30.03;16.77;;;7.50;99.90;;;;;;4981581;28;20023;-82
2023/12/18 06:14:42;;;;;;;33.37;18.77;;;7.50;99.90;;;;;;4981803;28;20011;-82
2023/12/18 06:17:09;;;;;;;39.20;19.40;;;7.50;99.90;;;;;;4981488;28;20550;-81
2023/12/18 06:19:35;;;;;;;28.90;16.80;;;7.50;99.90;;;;;;4983055;28;20413;-82
2023/12/18 06:22:01;;;;;;;33.43;19.03;;;7.50;99.90;;;;;;4982098;28;20415;-80
2023/12/18 06:24:27;;;;;;;29.93;19.00;;;7.50;99.90;;;;;;4984505;28;20117;-82
2023/12/18 06:26:53;;;;;;;35.53;17.80;;;7.50;99.90;;;;;;5009378;28;20421;-84
2023/12/18 06:29:19;;;;;;;28.87;18.13;;;7.60;99.90;;;;;;5003997;28;20049;-79
2023/12/18 06:31:45;;;;;;;28.30;18.90;;;7.50;99.90;;;;;;5020910;28;20038;-81
2023/12/18 06:34:11;;;;;;;30.53;17.30;;;7.50;99.90;;;;;;5009715;28;20048;-82
2023/12/18 06:36:37;;;;;;;31.17;19.00;;;7.50;99.90;;;;;;4995199;28;20041;-82
2023/12/18 06:39:03;;;;;;;31.03;17.93;;;7.50;99.90;;;;;;4999866;28;20033;-82
2023/12/18 06:41:29;;;;;;;35.40;19.60;;;7.50;99.90;;;;;;5001394;28;20014;-80
2023/12/18 06:43:55;;;;;;;35.03;18.53;;;7.50;99.90;;;;;;5002748;28;20094;-81
2023/12/18 06:46:21;;;;;;;33.27;19.07;;;7.50;99.90;;;;;;5000753;28;20029;-80
2023/12/18 06:48:47;;;;;;;30.10;17.63;;;7.50;99.90;;;;;;5006834;28;20026;-80
2023/12/18 06:51:13;;;;;;;35.00;18.33;;;7.50;99.90;;;;;;5007166;28;20052;-80
2023/12/18 06:53:38;;;;;;;36.10;20.93;;;7.50;99.90;;;;;;5007243;28;20041;-80
2023/12/18 06:56:04;;;;;;;33.57;18.63;;;7.50;99.90;;;;;;5007318;28;20509;-81
2023/12/18 06:58:30;;;;;;;34.37;20.30;;;7.50;99.90;;;;;;5007018;28;20015;-81
2023/12/18 07:00:55;;;;;;;35.80;19.63;;;7.60;99.90;;;;;;5022167;28;20093;-81
2023/12/18 07:03:21;;;;;;;33.70;18.70;;;7.50;99.90;;;;;;5006941;28;20052;-81
2023/12/18 07:05:49;;;;;;;35.57;18.60;;;7.50;99.90;;;;;;5007568;28;20026;-81
2023/12/18 07:08:14;;;;;;;35.00;17.80;;;7.50;99.90;;;;;;5007033;28;20022;-81
2023/12/18 07:10:40;;;;;;;32.97;17.87;;;7.50;99.90;;;;;;5006812;28;20505;-82
2023/12/18 07:13:06;;;;;;;33.47;18.90;;;7.50;99.90;;;;;;5006599;28;20025;-82
2023/12/18 07:15:31;;;;;;;34.00;19.43;;;7.50;99.90;;;;;;5006182;28;20034;-81
2023/12/18 07:17:58;;;;;;;31.73;18.13;;;7.60;99.90;;;;;;5006980;28;20089;-81
2023/12/18 07:20:24;;;;;;;33.47;19.97;;;7.50;99.90;;;;;;5006607;28;20041;-81
2023/12/18 07:22:50;;;;;;;35.13;20.53;;;7.50;99.90;;;;;;5007067;28;20395;-81
2023/12/18 07:25:16;;;;;;;33.33;18.47;;;7.60;99.90;;;;;;5006203;28;20102;-81
2023/12/18 07:27:41;;;;;;;34.10;18.33;;;7.60;99.90;;;;;;5006554;28;20034;-81
2023/12/18 07:30:07;;;;;;;31.37;17.07;;;7.60;99.90;;;;;;5006567;28;20529;-81
2023/12/18 07:32:33;;;;;;;34.17;19.40;;;7.60;99.90;;;;;;5006800;28;20021;-81
2023/12/18 07:35:02;;;;;;;33.13;18.60;;;7.60;99.90;;;;;;5006706;28;20087;-80
2023/12/18 07:37:29;;;;;;;31.77;18.10;;;7.60;99.90;;;;;;5006929;28;20497;-81
2023/12/18 07:39:58;;;;;;;40.20;20.30;;;7.60;99.90;;;;;;5007087;28;20021;-81
2023/12/18 07:42:24;;;;;;;34.53;19.77;;;7.60;99.90;;;;;;5006659;28;20025;-79
2023/12/18 07:44:50;;;;;;;34.27;19.90;;;7.70;99.90;;;;;;5005559;28;20049;-80
2023/12/18 07:47:16;;;;;;;39.33;20.70;;;7.60;99.90;;;;;;5005993;28;20018;-81
2023/12/18 07:49:42;;;;;;;33.33;20.47;;;7.60;99.90;;;;;;4990257;28;20026;-81
2023/12/18 07:52:08;;;;;;;33.27;18.77;;;7.60;99.90;;;;;;5007285;28;20014;-81
2023/12/18 07:54:34;;;;;;;37.90;19.43;;;7.60;99.90;;;;;;5006475;28;20021;-81
2023/12/18 07:57:00;;;;;;;34.60;19.10;;;7.70;99.90;;;;;;5006683;28;20096;-81
2023/12/18 07:59:28;;;;;;;32.50;17.73;;;7.60;99.90;;;;;;5005457;28;20056;-82
2023/12/18 08:01:54;;;;;;;34.27;18.83;;;7.70;99.90;;;;;;5006252;28;20026;-81
2023/12/18 08:04:20;;;;;;;31.80;18.17;;;7.70;99.90;;;;;;5024208;28;20058;-81
2023/12/18 08:06:47;;;;;;;32.93;19.27;;;7.60;99.90;;;;;;5006394;28;20037;-81
2023/12/18 08:09:13;;;;;;;35.50;20.37;;;7.70;99.90;;;;;;5000090;28;20508;-82
2023/12/18 08:11:39;;;;;;;36.47;19.10;;;7.60;99.90;;;;;;5003254;28;20029;-82
2023/12/18 08:14:05;;;;;;;31.33;18.27;;;7.60;99.90;;;;;;5002634;28;20025;-81
2023/12/18 08:16:31;;;;;;;28.37;16.93;;;7.70;99.90;;;;;;5005190;28;20034;-81
2023/12/18 08:18:57;;;;;;;28.87;16.63;;;7.70;99.90;;;;;;5005871;28;20089;-81
2023/12/18 08:21:25;;;;;;;33.70;17.40;;;7.70;99.90;;;;;;5005514;28;20026;-81
2023/12/18 08:23:50;;;;;;;27.47;15.97;;;7.70;99.90;;;;;;5005385;28;20094;-81
2023/12/18 08:26:17;;;;;;;31.50;16.40;;;7.80;99.90;;;;;;5005614;28;20078;-80
2023/12/18 08:28:44;;;;;;;31.73;17.50;;;7.80;99.90;;;;;;5023129;28;20037;-81
2023/12/18 08:31:11;;;;;;;33.50;19.03;;;7.80;99.90;;;;;;5024107;28;20021;-81
2023/12/18 08:33:38;;;;;;;31.37;18.50;;;7.80;99.90;;;;;;5005816;28;20030;-81
2023/12/18 08:36:04;;;;;;;30.27;18.07;;;7.80;99.90;;;;;;5005033;28;20037;-81
2023/12/18 08:38:30;;;;;;;37.00;19.37;;;7.80;99.90;;;;;;5004956;28;20057;-81
2023/12/18 08:40:55;;;;;;;28.40;17.23;;;7.80;99.90;;;;;;5023253;28;20025;-82
2023/12/18 08:43:21;;;;;;;29.30;16.90;;;7.90;99.90;;;;;;5023265;28;20030;-82
2023/12/18 08:45:47;;;;;;;34.17;18.43;;;7.90;99.90;;;;;;5013474;28;20044;-81
2023/12/18 08:48:12;;;;;;;31.43;16.73;;;7.90;99.90;;;;;;5025786;28;20022;-80
2023/12/18 08:50:38;;;;;;;27.97;16.80;;;7.90;99.90;;;;;;5024791;28;20052;-81
2023/12/18 08:53:04;;;;;;;29.77;17.70;;;7.90;99.90;;;;;;5025059;28;20060;-79
2023/12/18 08:55:30;;;;;;;32.27;17.97;;;7.90;99.90;;;;;;5024720;28;20040;-80
2023/12/18 08:57:56;;;;;;;25.97;16.10;;;7.90;99.90;;;;;;5016871;28;20014;-81
2023/12/18 09:00:22;;;;;;;34.83;17.33;;;8.00;99.90;;;;;;5022661;28;20032;-81
2023/12/18 09:02:48;;;;;;;33.03;18.20;;;8.00;99.90;;;;;;5022430;28;20018;-81
2023/12/18 09:05:13;;;;;;;34.77;17.83;;;8.00;99.90;;;;;;5005071;28;20029;-80
2023/12/18 09:07:39;;;;;;;33.03;17.10;;;8.00;99.90;;;;;;5022114;28;20033;-81
2023/12/18 09:10:06;;;;;;;34.40;18.70;;;8.00;99.90;;;;;;5004053;28;20533;-80
2023/12/18 09:12:31;;;;;;;38.27;19.03;;;8.00;99.90;;;;;;5003980;28;20022;-80
2023/12/18 09:14:57;;;;;;;35.33;18.23;;;8.00;99.90;;;;;;5004576;28;20017;-80
2023/12/18 09:17:24;;;;;;;31.33;17.77;;;8.00;99.90;;;;;;4988193;28;20161;-80
2023/12/18 09:19:49;;;;;;;31.50;17.03;;;8.10;99.90;;;;;;5004523;28;20058;-81
2023/12/18 09:22:15;;;;;;;29.30;17.53;;;8.10;99.90;;;;;;5022665;28;20018;-81
2023/12/18 09:24:41;;;;;;;34.03;18.23;;;8.10;99.90;;;;;;5004029;28;20096;-80
2023/12/18 09:27:07;;;;;;;33.57;18.93;;;8.10;99.90;;;;;;5004303;28;20025;-80
2023/12/18 09:29:33;;;;;;;32.87;18.63;;;8.20;99.90;;;;;;5005058;28;20033;-80
2023/12/18 09:31:59;;;;;;;35.87;19.60;;;8.10;99.90;;;;;;5022182;28;20647;-80
2023/12/18 09:34:24;;;;;;;36.63;20.10;;;8.10;99.90;;;;;;5004710;28;20025;-81
2023/12/18 09:36:50;;;;;;;33.70;19.27;;;8.10;99.90;;;;;;5004821;28;20037;-81
2023/12/18 09:39:15;;;;;;;32.80;17.10;;;8.10;99.90;;;;;;5005081;28;20014;-81
2023/12/18 09:41:41;;;;;;;36.83;20.13;;;8.10;99.90;;;;;;5022460;28;20089;-81
2023/12/18 09:44:07;;;;;;;36.30;19.20;;;8.20;99.90;;;;;;5023031;28;20018;-80
2023/12/18 09:46:33;;;;;;;36.13;18.80;;;8.20;99.90;;;;;;5022280;28;20057;-80
2023/12/18 09:48:58;;;;;;;33.43;18.13;;;8.20;99.90;;;;;;5004573;28;20441;-81
2023/12/18 09:51:25;;;;;;;31.97;17.93;;;8.20;99.90;;;;;;5005062;28;20029;-81
2023/12/18 09:53:53;;;;;;;35.00;18.40;;;8.30;99.90;;;;;;5004486;28;20025;-80
2023/12/18 09:56:20;;;;;;;38.47;17.97;;;8.30;99.90;;;;;;5004615;28;20041;-80
2023/12/18 09:58:47;;;;;;;34.50;18.03;;;8.30;99.90;;;;;;5004804;28;20389;-81
2023/12/18 10:01:13;;;;;;;34.23;17.97;;;8.40;99.90;;;;;;5005227;28;20036;-81
2023/12/18 10:03:39;;;;;;;32.90;18.43;;;8.40;99.90;;;;;;5004726;28;20053;-81
2023/12/18 10:06:05;;;;;;;31.93;17.30;;;8.40;99.90;;;;;;5004920;28;20048;-81
2023/12/18 10:08:31;;;;;;;31.53;18.47;;;8.40;99.90;;;;;;5004763;28;20026;-81
2023/12/18 10:10:56;;;;;;;27.30;17.27;;;8.40;99.90;;;;;;5007779;28;20433;-81
2023/12/18 10:13:24;;;;;;;35.67;18.20;;;8.50;99.90;;;;;;5008857;28;20029;-81
2023/12/18 10:15:52;;;;;;;34.03;19.10;;;8.50;99.90;;;;;;5025949;28;20064;-81
2023/12/18 10:18:21;;;;;;;28.63;17.90;;;8.60;99.90;;;;;;5020604;28;20025;-81
2023/12/18 10:20:50;;;;;;;31.07;19.20;;;8.60;99.90;;;;;;5045550;28;20053;-81
2023/12/18 10:23:16;;;;;;;30.00;17.73;;;8.60;99.90;;;;;;5027835;28;20060;-80
2023/12/18 10:25:42;;;;;;;33.37;18.13;;;8.70;99.90;;;;;;5045133;28;20099;-80
2023/12/18 10:28:08;;;;;;;36.23;17.87;;;8.60;99.90;;;;;;5027980;28;20057;-80
2023/12/18 10:30:37;;;;;;;39.63;19.60;;;8.70;99.90;;;;;;5027637;28;20097;-80
2023/12/18 10:33:06;;;;;;;33.03;18.40;;;8.70;99.90;;;;;;5027557;28;20025;-80
2023/12/18 10:35:35;;;;;;;37.73;19.40;;;8.70;99.90;;;;;;5027584;28;20044;-81
2023/12/18 10:38:02;;;;;;;31.80;18.07;;;8.70;99.90;;;;;;5027136;28;20040;-82
2023/12/18 10:40:28;;;;;;;34.27;17.90;;;8.70;99.90;;;;;;5027512;28;20021;-82
2023/12/18 10:43:20;;;;;;;31.07;17.93;;;8.70;99.90;;;;;;5027687;28;20018;-82
2023/12/18 10:45:47;;;;;;;31.43;17.40;;;8.70;99.90;;;;;;5027263;28;20024;-81
2023/12/18 10:48:15;;;;;;;29.87;16.77;;;8.80;99.90;;;;;;5018264;28;20018;-81
2023/12/18 10:50:44;;;;;;;32.03;17.83;;;8.80;99.90;;;;;;5006800;28;20585;-82
2023/12/18 10:53:14;;;;;;;30.83;17.30;;;8.80;99.90;;;;;;5006874;28;20082;-81
2023/12/18 10:55:41;;;;;;;27.17;17.10;;;8.90;99.90;;;;;;5006771;28;20034;-81
2023/12/18 10:58:08;;;;;;;32.07;17.40;;;8.90;99.90;;;;;;5006931;28;20029;-80
2023/12/18 11:00:35;;;;;;;27.50;16.10;;;8.90;99.90;;;;;;5007209;28;20022;-81
2023/12/18 11:03:01;;;;;;;32.60;18.47;;;8.90;99.90;;;;;;5007355;28;20076;-81
2023/12/18 11:05:29;;;;;;;32.03;17.30;;;9.00;99.90;;;;;;5008076;28;20025;-81
2023/12/18 11:07:56;;;;;;;29.90;16.87;;;9.10;99.90;;;;;;5024665;28;20029;-79
2023/12/18 11:10:22;;;;;;;29.43;15.87;;;9.00;99.90;;;;;;5006873;28;20021;-82
2023/12/18 11:12:51;;;;;;;29.37;15.47;;;9.10;99.90;;;;;;5007354;28;20025;-82
2023/12/18 11:15:53;;;;;;;25.93;15.83;;;9.10;99.90;;;;;;5007112;28;20527;-82
2023/12/18 11:18:28;;;;;;;30.60;16.27;;;9.20;99.90;;;;;;5002081;28;20030;-82
2023/12/18 11:20:56;;;;;;;29.70;17.83;;;9.20;99.90;;;;;;5006782;28;20108;-82
2023/12/18 11:23:25;;;;;;;32.93;18.00;;;9.30;99.90;;;;;;5007130;28;20033;-82
2023/12/18 11:25:51;;;;;;;28.50;16.73;;;9.30;99.90;;;;;;5007303;28;20374;-82
2023/12/18 11:28:20;;;;;;;26.93;16.20;;;9.30;99.90;;;;;;5007303;28;20026;-82
2023/12/18 11:30:45;;;;;;;29.10;16.27;;;9.30;99.90;;;;;;5007455;28;20018;-82
2023/12/18 11:33:13;;;;;;;27.07;14.70;;;9.30;99.90;;;;;;5007228;28;20025;-82
2023/12/18 11:35:48;;;;;;;25.57;16.17;;;9.30;99.90;;;;;;5007109;28;20030;-81
2023/12/18 11:38:22;;;;;;;27.90;16.00;;;9.30;99.90;;;;;;5024117;28;20030;-81
2023/12/18 11:40:50;;;;;;;30.35;16.23;;;9.30;99.90;;;;;;5006654;28;20026;-81
2023/12/18 11:43:36;;;;;;;34.17;17.03;;;9.30;99.90;;;;;;5002776;28;20018;-80
2023/12/18 11:46:03;;;;;;;23.30;15.33;;;9.20;99.90;;;;;;5006929;28;20032;-82
2023/12/18 11:48:29;;;;;;;28.73;16.17;;;9.30;99.90;;;;;;5007366;28;20100;-81
2023/12/18 11:50:55;;;;;;;25.20;15.43;;;9.30;99.90;;;;;;5006206;28;20018;-83
2023/12/18 11:53:23;;;;;;;25.43;15.00;;;9.30;99.90;;;;;;5006215;28;20026;-82
2023/12/18 11:55:51;;;;;;;28.67;15.73;;;9.40;99.90;;;;;;5007875;28;20073;-82
2023/12/18 11:58:24;;;;;;;23.60;14.40;;;9.40;99.90;;;;;;5026140;28;20077;-82
2023/12/18 12:00:50;;;;;;;30.30;16.10;;;9.40;99.90;;;;;;5026475;28;20061;-82
2023/12/18 12:03:16;;;;;;;31.20;16.40;;;9.50;99.90;;;;;;5043516;28;20029;-82
2023/12/18 12:05:43;;;;;;;24.67;15.97;;;9.50;99.90;;;;;;5026116;28;20085;-82
2023/12/18 12:08:09;;;;;;;31.70;15.63;;;9.50;99.90;;;;;;5025641;28;20289;-82
2023/12/18 12:10:43;;;;;;;26.97;16.03;;;9.50;99.90;;;;;;5025973;28;20044;-81
2023/12/18 12:13:20;;;;;;;26.08;15.50;;;9.50;99.90;;;;;;5009722;28;20018;-82
2023/12/18 12:15:56;;;;;;;28.43;16.30;;;9.50;99.90;;;;;;4986191;28;20030;-82
2023/12/18 12:18:43;;;;;;;26.30;15.40;;;9.40;99.90;;;;;;5004521;28;20167;-82
2023/12/18 12:21:11;;;;;;;25.43;14.67;;;9.40;99.90;;;;;;4986344;28;20030;-82
2023/12/18 12:23:37;;;;;;;28.17;16.67;;;9.50;99.90;;;;;;4986148;28;20100;-80
2023/12/18 12:26:04;;;;;;;30.70;15.57;;;9.50;99.90;;;;;;5004041;28;20535;-81
2023/12/18 12:28:31;;;;;;;34.03;17.37;;;9.50;99.90;;;;;;4986333;28;20149;-81
2023/12/18 12:30:58;;;;;;;33.63;16.40;;;9.50;99.90;;;;;;4986812;28;20050;-81
2023/12/18 12:33:24;;;;;;;33.33;17.67;;;9.50;99.90;;;;;;5003078;28;20081;-82